• Join FlightAware (Why Join?)
  • Login
  • US Flag 
12:02PM EDT


 

Airport Tracker/Info


-or-


 

Live Flight TrackerFlight Track Log ✈ JBU41 ✈ 2013年 05月 10日 ✈ KJFK - KMCO

Flight Track Log - Related Links

Times and Time Zones

All times are in EDT time to prevent confusion due to time zone crossing. See the JBU41 flight status page for this flight to view local times or setup timezone preferences in your user account.

Time Position Orientation Groundspeed Altitude Reporting Facility
EDT Latitude Longitude Course Direction KTS MPH feet Rate Location/Type
10:56AM 40.6000 -73.8000 218° Southwest 172 198 1,900  Level New York TRACON
10:58AM 39.5387 -73.8566 221° Southwest  Level FlightAware Approximate
10:58AM 40.5425 -73.6822 123° Southeast 233 268 5,300  Level New York Center
10:59AM 39.4683 -73.9371 222° Southwest  Level FlightAware Approximate
10:59AM 40.4756 -73.6111 141° Southeast 269 310 8,800  Level New York Center
11:00AM 39.3984 -74.0183 218° Southwest  Level FlightAware Approximate
11:00AM 40.4122 -73.5569 147° Southeast 294 338 10,800  Level New York Center
11:01AM 39.3241 -74.0928 218° Southwest  Level FlightAware Approximate
11:01AM 40.3064 -73.5389 173° South 329 379 12,000  Level New York Center
11:02AM 40.2086 -73.5269 175° South 386 444 13,800 1,920 Climbing New York Center
11:03AM 40.0817 -73.5164 176° South 418 481 15,900 1,860 Climbing New York Center
11:04AM 39.9844 -73.5719 204° Southwest 409 471 17,600 1,620 Climbing New York Center
11:05AM 39.8256 -73.7031 212° Southwest 409 471 20,000 1,620 Climbing Washington Center
11:06AM 39.7186 -73.7842 210° Southwest 437 503 21,700 1,440 Climbing Washington Center
11:07AM 39.6133 -73.8622 210° Southwest 443 510 22,900 1,140 Climbing Washington Center
11:08AM 39.5022 -73.9483 211° Southwest 448 516 24,100 1,140 Climbing Washington Center
11:09AM 39.3928 -74.0367 212° Southwest 455 524 25,200 1,080 Climbing Washington Center
11:10AM 39.2814 -74.1275 212° Southwest 468 539 26,300 780 Climbing Washington Center
11:11AM 39.1722 -74.2208 214° Southwest 473 544 26,800 540 Climbing Washington Center
11:12AM 39.0586 -74.3139 212° Southwest 478 550 27,500 840 Climbing Washington Center
11:13AM 38.9447 -74.4039 212° Southwest 478 550 28,500 900 Climbing Washington Center
11:14AM 38.8475 -74.4828 212° Southwest 478 550 29,400 1,440 Climbing Washington Center
11:15AM 38.7358 -74.5750 213° Southwest 473 544 31,500 1,620 Climbing Washington Center
11:16AM 38.6303 -74.6614 213° Southwest 473 544 32,700 960 Climbing Washington Center
11:17AM 38.5244 -74.7478 213° Southwest 466 536 33,500 660 Climbing Washington Center
11:18AM 38.4167 -74.8339 212° Southwest 466 536 34,000 240 Climbing Washington Center
11:19AM 38.3006 -74.9303 213° Southwest 466 536 34,000  Level Washington Center
11:20AM 38.1864 -75.0158 211° Southwest 466 536 34,000 -300 Level Washington Center
11:21AM 38.0783 -75.1036 213° Southwest 471 542 33,500 -600 Descending Washington Center
11:22AM 37.9681 -75.1914 212° Southwest 477 549 32,800 -720 Descending Washington Center
11:23AM 37.8558 -75.2814 212° Southwest 477 549 32,100 -720 Descending Washington Center
11:24AM 37.7411 -75.3686 211° Southwest 477 549 31,400 -660 Descending Washington Center
11:25AM 37.6286 -75.4556 211° Southwest 477 549 30,800 -660 Descending Washington Center
11:26AM 37.5183 -75.5447 213° Southwest 477 549 30,100 -420 Descending Washington Center
11:27AM 37.4056 -75.6258 210° Southwest 477 549 30,000 -60 Descending Washington Center
11:28AM 37.2950 -75.7119 212° Southwest 477 549 30,000  Level Washington Center
11:29AM 37.1822 -75.8003 212° Southwest 477 549 30,000 -60 Level Washington Center
11:30AM 37.0714 -75.8833 211° Southwest 477 549 29,900  Descending Washington Center
11:31AM 36.9650 -75.9583 209° Southwest 483 556 30,000  Climbing Washington Center
11:32AM 36.8542 -76.0461 212° Southwest 489 563 29,900 -540 Descending Washington Center
11:33AM 36.7389 -76.1311 211° Southwest 497 572 29,000 -1,020 Descending Washington Center
11:34AM 36.6175 -76.2258 212° Southwest 485 558 28,000 -540 Descending Washington Center
11:35AM 36.5022 -76.3103 210° Southwest 485 558 28,000  Level Washington Center
11:36AM 36.3892 -76.3944 211° Southwest 485 558 28,000  Level Washington Center
11:37AM 36.2739 -76.4808 211° Southwest 485 558 28,000  Level Washington Center
11:38AM 36.1561 -76.5669 211° Southwest 490 564 28,000  Level Washington Center
11:39AM 36.0514 -76.6453 211° Southwest 495 570 28,000  Level Washington Center
11:40AM 35.9253 -76.7386 211° Southwest 495 570 28,000  Level Washington Center
11:41AM 35.8181 -76.8139 210° Southwest 490 564 28,000  Level Washington Center
11:42AM 35.6961 -76.9067 212° Southwest 490 564 28,000  Level Washington Center
11:43AM 35.5867 -76.9892 212° Southwest 479 551 28,000  Level Washington Center
11:44AM 35.4731 -77.0714 211° Southwest 479 551 28,000  Level Washington Center
11:45AM 35.3633 -77.1533 211° Southwest 479 551 28,000  Level Washington Center
11:46AM 35.2497 -77.2325 210° Southwest 479 551 28,000  Level Washington Center
11:47AM 35.1339 -77.3139 210° Southwest 479 551 28,000  Level Washington Center
11:48AM 35.0219 -77.3953 211° Southwest 479 551 28,000  Level Washington Center
11:49AM 34.9250 -77.4667 211° Southwest 473 544 28,000  Level Washington Center
11:50AM 34.8131 -77.5500 211° Southwest 473 544 28,000  Level Washington Center
11:51AM 34.6992 -77.6281 209° Southwest 478 550 28,000  Level Washington Center
11:52AM 34.5892 -77.7086 211° Southwest 478 550 28,000 -60 Level Washington Center
11:53AM 34.4772 -77.7889 211° Southwest 478 550 27,900  Descending Washington Center
11:54AM 34.3631 -77.8639 208° Southwest 478 550 28,000  Climbing Washington Center
11:55AM 34.2350 -77.9056 195° South 467 537 28,000  Level Washington Center
11:59AM 33.6981 -78.0622 194° South 470 541 28,000  Level Jacksonville Center
12:00PM 33.5825 -78.0961 194° South 481 554 28,000  Level Jacksonville Center
12:01PM 33.4525 -78.1356 194° South 487 560 28,000  Level Jacksonville Center
12:02PM 33.3222 -78.1697 192° South 487 560 28,000  Level Jacksonville Center
12:03PM 33.1903 -78.2067 193° South 487 560 28,000  Level Jacksonville Center
12:04PM 33.0622 -78.2456 194° South 487 560 28,000  Level Jacksonville Center
12:05PM 32.9300 -78.2794 192° South 487 560 28,000  Level Jacksonville Center
12:06PM 32.7978 -78.3161 193° South 487 560 28,000  Level Jacksonville Center
12:07PM 32.6675 -78.3522 193° South 487 560 28,000  Level Jacksonville Center
12:08PM 32.5353 -78.3883 193° South 487 560 28,000  Level Jacksonville Center
12:09PM 32.4031 -78.4269 194° South 487 560 28,000 -60 Level Jacksonville Center
12:10PM 32.2586 -78.4733 195° South 487 560 27,900  Descending Jacksonville Center
12:11PM 32.1261 -78.5117 194° South 487 560 28,000  Climbing Jacksonville Center
12:12PM 31.9961 -78.5519 195° South 487 560 28,000 -60 Level Jacksonville Center
12:13PM 31.8658 -78.5875 193° South 487 560 27,900  Descending Jacksonville Center
12:14PM 31.7336 -78.6256 194° South 487 560 28,000  Climbing Jacksonville Center
12:15PM 31.5972 -78.6658 194° South 493 567 28,000  Level Jacksonville Center
12:16PM 31.4669 -78.7033 194° South 488 562 28,000  Level Jacksonville Center
12:17PM 31.3347 -78.7458 195° South 488 562 28,000  Level Jacksonville Center
12:18PM 31.2081 -78.7708 190° South 485 558 28,000  Level Jacksonville Center
12:19PM 31.0717 -78.8156 196° South 492 566 28,000  Level Jacksonville Center
12:20PM 30.9394 -78.8528 194° South 487 560 28,000  Level Jacksonville Center
12:21PM 30.8047 -78.8875 192° South 492 566 28,000  Level Jacksonville Center
12:23PM 30.5672 -78.9558 194° South 488 562 28,000 -60 Level Miami Center
12:24PM 30.4394 -78.9917 194° South 488 562 27,900  Descending Miami Center
12:25PM 30.3072 -79.0444 199° South 489 563 28,000  Climbing Miami Center
12:26PM 30.1878 -79.0994 202° Southwest 484 557 28,000  Level Miami Center
12:27PM 30.0597 -79.1567 201° Southwest 490 564 28,000  Level Miami Center
12:28PM 29.9314 -79.2161 202° Southwest 490 564 28,000  Level Miami Center
12:29PM 29.8056 -79.2683 200° South 490 564 28,000  Level Miami Center
12:30PM 29.6836 -79.3278 203° Southwest 490 564 28,000  Level Miami Center
12:31PM 29.5556 -79.3772 199° South 490 564 28,000  Level Miami Center
12:32PM 29.4272 -79.4292 199° South 490 564 28,000 -240 Level Miami Center
12:33PM 29.3031 -79.4906 203° Southwest 490 564 27,600 -720 Descending Miami Center
12:34PM 29.1931 -79.5758 214° Southwest 485 558 26,600 -1,020 Descending Miami Center
12:35PM 29.0992 -79.6828 225° Southwest 485 558 25,600 -1,020 Descending Miami Center
12:36PM 29.0278 -79.8092 237° Southwest 473 544 24,600 -960 Descending Miami Center
12:37PM 28.9789 -79.9525 249° West 478 550 23,700 -1,440 Descending Miami Center
12:38PM 28.9339 -80.0936 250° West 478 550 21,800 -2,640 Descending Miami Center
12:39PM 28.8933 -80.2275 251° West 470 541 18,500 -2,760 Descending Miami Center
12:41PM 28.8167 -80.4833 251° West 411 473 14,100 -1,800 Descending Orlando TRACON
12:42PM 28.8000 -80.6000 261° West 408 470 13,400 -1,860 Descending Orlando TRACON
12:43PM 28.7833 -80.7333 262° West 395 455 10,400 -1,800 Descending Orlando TRACON
12:44PM 28.7833 -80.8333 270° West 332 382 10,000 -180 Descending Orlando TRACON
12:45PM 28.7667 -80.9333 259° West 288 331 10,100 -600 Climbing Orlando TRACON
12:46PM 28.7500 -81.0167 257° West 283 326 8,800 -1,740 Descending Orlando TRACON
12:47PM 28.7333 -81.1000 257° West 273 314 6,700 -1,560 Descending Orlando TRACON
12:48PM 28.7333 -81.1833 270° West 242 278 5,700 -1,140 Descending Orlando TRACON
12:49PM 28.6833 -81.2333 221° Southwest 210 242 4,400 -960 Descending Orlando TRACON
12:50PM 28.6333 -81.2667 210° Southwest 216 249 3,900 -1,020 Descending Orlando TRACON
12:51PM 28.5833 -81.3000 210° Southwest 214 246 2,500 -720 Descending Orlando TRACON
12:52PM 28.5333 -81.3333 210° Southwest 158 182 2,400 -600 Descending Orlando TRACON
12:53PM 28.5000 -81.3333 180° South 141 162 1,400 -1,140 Descending Orlando TRACON
12:54PM 28.4667 -81.3333 180° South 137 158 500 -1,020 Descending Orlando TRACON